Terminal Aerodrome Forecast
Issued by NWS

Home | Current Version | Previous Version | Text Only | Print | Product List | Glossary On
Versions: 1 2 3 4 5 6 7 8 9 10 11 12 13 14
000
FTUS45 KABQ 032058 AAA
TAFSAF
TAF AMD
KSAF 032058Z 0321/0418 VRB05KT P6SM SKC
      TEMPO 0321/0401 24011G20KT=

USA.gov is the U.S. government's official web portal to all federal, state and local government web resources and services.